sensor_id;sensor_type;location;lat;lon;timestamp;P1;durP1;ratioP1;P2;durP2;ratioP2
21860;SDS011;11095;48.066;8.540;2023-02-28T00:00:15;6.60;;;5.03;;
21860;SDS011;11095;48.066;8.540;2023-02-28T00:02:41;5.57;;;4.32;;
21860;SDS011;11095;48.066;8.540;2023-02-28T00:05:08;6.00;;;4.70;;
21860;SDS011;11095;48.066;8.540;2023-02-28T00:07:38;12.30;;;5.10;;
21860;SDS011;11095;48.066;8.540;2023-02-28T00:10:04;7.65;;;5.38;;
21860;SDS011;11095;48.066;8.540;2023-02-28T00:12:32;6.53;;;4.82;;
21860;SDS011;11095;48.066;8.540;2023-02-28T00:14:58;6.45;;;4.85;;
21860;SDS011;11095;48.066;8.540;2023-02-28T00:17:23;7.28;;;5.05;;
21860;SDS011;11095;48.066;8.540;2023-02-28T00:19:49;6.22;;;4.68;;
21860;SDS011;11095;48.066;8.540;2023-02-28T00:22:16;8.00;;;4.70;;
21860;SDS011;11095;48.066;8.540;2023-02-28T00:24:43;6.63;;;4.57;;
21860;SDS011;11095;48.066;8.540;2023-02-28T00:27:09;6.78;;;4.72;;
21860;SDS011;11095;48.066;8.540;2023-02-28T00:29:34;8.27;;;5.15;;
21860;SDS011;11095;48.066;8.540;2023-02-28T00:32:00;7.50;;;5.15;;
21860;SDS011;11095;48.066;8.540;2023-02-28T00:34:26;7.03;;;5.05;;
21860;SDS011;11095;48.066;8.540;2023-02-28T00:36:52;8.23;;;4.88;;
21860;SDS011;11095;48.066;8.540;2023-02-28T00:39:17;7.18;;;4.68;;
21860;SDS011;11095;48.066;8.540;2023-02-28T00:41:43;10.40;;;4.93;;
21860;SDS011;11095;48.066;8.540;2023-02-28T00:44:09;6.38;;;4.20;;
21860;SDS011;11095;48.066;8.540;2023-02-28T00:46:34;6.40;;;4.68;;
21860;SDS011;11095;48.066;8.540;2023-02-28T00:49:00;6.93;;;5.00;;
21860;SDS011;11095;48.066;8.540;2023-02-28T00:51:26;7.45;;;4.75;;
21860;SDS011;11095;48.066;8.540;2023-02-28T00:53:51;6.90;;;4.85;;
21860;SDS011;11095;48.066;8.540;2023-02-28T00:56:17;7.25;;;4.68;;
21860;SDS011;11095;48.066;8.540;2023-02-28T00:58:43;6.88;;;4.93;;
21860;SDS011;11095;48.066;8.540;2023-02-28T01:01:08;7.25;;;4.93;;
21860;SDS011;11095;48.066;8.540;2023-02-28T01:03:34;8.00;;;4.78;;
21860;SDS011;11095;48.066;8.540;2023-02-28T01:06:00;4.85;;;3.97;;
21860;SDS011;11095;48.066;8.540;2023-02-28T01:08:25;7.10;;;4.90;;
21860;SDS011;11095;48.066;8.540;2023-02-28T01:10:51;7.82;;;4.93;;
21860;SDS011;11095;48.066;8.540;2023-02-28T01:13:18;8.07;;;4.72;;
21860;SDS011;11095;48.066;8.540;2023-02-28T01:15:45;5.88;;;4.43;;
21860;SDS011;11095;48.066;8.540;2023-02-28T01:18:15;7.28;;;4.95;;
21860;SDS011;11095;48.066;8.540;2023-02-28T01:20:41;7.65;;;5.32;;
21860;SDS011;11095;48.066;8.540;2023-02-28T01:23:07;6.68;;;4.72;;
21860;SDS011;11095;48.066;8.540;2023-02-28T01:25:36;6.88;;;4.78;;
21860;SDS011;11095;48.066;8.540;2023-02-28T01:28:02;7.13;;;4.95;;
21860;SDS011;11095;48.066;8.540;2023-02-28T01:30:28;6.95;;;4.93;;
21860;SDS011;11095;48.066;8.540;2023-02-28T01:32:54;9.95;;;5.40;;
21860;SDS011;11095;48.066;8.540;2023-02-28T01:35:20;8.13;;;5.50;;
21860;SDS011;11095;48.066;8.540;2023-02-28T01:37:45;7.13;;;5.30;;
21860;SDS011;11095;48.066;8.540;2023-02-28T01:40:11;7.05;;;5.10;;
21860;SDS011;11095;48.066;8.540;2023-02-28T01:42:37;6.53;;;5.15;;
21860;SDS011;11095;48.066;8.540;2023-02-28T01:45:06;7.40;;;4.85;;
21860;SDS011;11095;48.066;8.540;2023-02-28T01:47:40;6.82;;;5.03;;
21860;SDS011;11095;48.066;8.540;2023-02-28T01:50:09;7.65;;;5.40;;
21860;SDS011;11095;48.066;8.540;2023-02-28T01:52:43;8.07;;;5.40;;
21860;SDS011;11095;48.066;8.540;2023-02-28T01:55:10;7.75;;;5.05;;
21860;SDS011;11095;48.066;8.540;2023-02-28T01:57:39;6.70;;;5.13;;
21860;SDS011;11095;48.066;8.540;2023-02-28T02:00:12;7.25;;;5.40;;
21860;SDS011;11095;48.066;8.540;2023-02-28T02:05:21;7.82;;;5.40;;
21860;SDS011;11095;48.066;8.540;2023-02-28T02:07:54;7.15;;;5.35;;
21860;SDS011;11095;48.066;8.540;2023-02-28T02:10:24;7.22;;;4.95;;
21860;SDS011;11095;48.066;8.540;2023-02-28T02:15:24;8.00;;;5.93;;
21860;SDS011;11095;48.066;8.540;2023-02-28T02:18:01;7.90;;;5.53;;
21860;SDS011;11095;48.066;8.540;2023-02-28T02:26:30;7.70;;;5.72;;
21860;SDS011;11095;48.066;8.540;2023-02-28T02:29:04;10.55;;;6.32;;
21860;SDS011;11095;48.066;8.540;2023-02-28T02:37:00;8.85;;;6.45;;
21860;SDS011;11095;48.066;8.540;2023-02-28T02:42:27;11.32;;;6.40;;
21860;SDS011;11095;48.066;8.540;2023-02-28T02:46:08;7.95;;;6.22;;
21860;SDS011;11095;48.066;8.540;2023-02-28T02:48:05;7.85;;;5.90;;
21860;SDS011;11095;48.066;8.540;2023-02-28T02:50:38;9.07;;;5.95;;
21860;SDS011;11095;48.066;8.540;2023-02-28T02:53:09;9.50;;;6.60;;
21860;SDS011;11095;48.066;8.540;2023-02-28T02:55:37;8.25;;;6.50;;
21860;SDS011;11095;48.066;8.540;2023-02-28T02:58:08;10.27;;;6.78;;
21860;SDS011;11095;48.066;8.540;2023-02-28T03:00:40;10.05;;;6.63;;
21860;SDS011;11095;48.066;8.540;2023-02-28T03:03:08;10.63;;;7.13;;
21860;SDS011;11095;48.066;8.540;2023-02-28T03:05:39;11.40;;;6.80;;
21860;SDS011;11095;48.066;8.540;2023-02-28T03:08:09;9.05;;;6.47;;
21860;SDS011;11095;48.066;8.540;2023-02-28T03:10:40;10.10;;;6.75;;
21860;SDS011;11095;48.066;8.540;2023-02-28T03:15:58;9.73;;;7.07;;
21860;SDS011;11095;48.066;8.540;2023-02-28T03:18:40;8.98;;;6.30;;
21860;SDS011;11095;48.066;8.540;2023-02-28T03:24:09;11.57;;;6.90;;
21860;SDS011;11095;48.066;8.540;2023-02-28T03:26:55;9.93;;;6.30;;
21860;SDS011;11095;48.066;8.540;2023-02-28T03:29:28;10.07;;;6.53;;
21860;SDS011;11095;48.066;8.540;2023-02-28T03:32:04;10.95;;;6.75;;
21860;SDS011;11095;48.066;8.540;2023-02-28T03:34:39;9.90;;;6.63;;
21860;SDS011;11095;48.066;8.540;2023-02-28T03:37:12;10.07;;;7.05;;
21860;SDS011;11095;48.066;8.540;2023-02-28T03:39:52;10.45;;;6.90;;
21860;SDS011;11095;48.066;8.540;2023-02-28T03:42:25;12.02;;;7.10;;
21860;SDS011;11095;48.066;8.540;2023-02-28T03:44:55;14.35;;;7.50;;
21860;SDS011;11095;48.066;8.540;2023-02-28T03:47:27;12.70;;;7.47;;
21860;SDS011;11095;48.066;8.540;2023-02-28T03:49:59;11.63;;;7.53;;
21860;SDS011;11095;48.066;8.540;2023-02-28T03:52:37;13.75;;;8.15;;
21860;SDS011;11095;48.066;8.540;2023-02-28T03:55:10;10.50;;;7.60;;
21860;SDS011;11095;48.066;8.540;2023-02-28T04:02:37;11.98;;;7.60;;
21860;SDS011;11095;48.066;8.540;2023-02-28T04:05:04;14.13;;;8.35;;
21860;SDS011;11095;48.066;8.540;2023-02-28T04:07:30;12.35;;;7.93;;
21860;SDS011;11095;48.066;8.540;2023-02-28T04:09:56;13.70;;;8.68;;
21860;SDS011;11095;48.066;8.540;2023-02-28T04:12:23;11.85;;;7.95;;
21860;SDS011;11095;48.066;8.540;2023-02-28T04:14:49;13.75;;;8.23;;
21860;SDS011;11095;48.066;8.540;2023-02-28T04:17:15;13.45;;;8.48;;
21860;SDS011;11095;48.066;8.540;2023-02-28T04:19:41;13.73;;;8.63;;
21860;SDS011;11095;48.066;8.540;2023-02-28T04:22:07;15.30;;;8.68;;
21860;SDS011;11095;48.066;8.540;2023-02-28T04:24:34;15.63;;;9.05;;
21860;SDS011;11095;48.066;8.540;2023-02-28T04:27:00;14.02;;;8.90;;
21860;SDS011;11095;48.066;8.540;2023-02-28T04:29:27;14.43;;;9.10;;
21860;SDS011;11095;48.066;8.540;2023-02-28T04:31:54;14.68;;;9.00;;
21860;SDS011;11095;48.066;8.540;2023-02-28T04:34:24;14.95;;;9.18;;
21860;SDS011;11095;48.066;8.540;2023-02-28T04:36:51;13.73;;;9.55;;
21860;SDS011;11095;48.066;8.540;2023-02-28T04:39:19;14.48;;;9.13;;
21860;SDS011;11095;48.066;8.540;2023-02-28T04:41:46;16.02;;;9.55;;
21860;SDS011;11095;48.066;8.540;2023-02-28T04:44:11;14.88;;;8.90;;
21860;SDS011;11095;48.066;8.540;2023-02-28T04:46:37;13.50;;;9.25;;
21860;SDS011;11095;48.066;8.540;2023-02-28T04:49:03;14.13;;;9.15;;
21860;SDS011;11095;48.066;8.540;2023-02-28T04:51:29;14.82;;;9.30;;
21860;SDS011;11095;48.066;8.540;2023-02-28T04:53:54;14.80;;;9.77;;
21860;SDS011;11095;48.066;8.540;2023-02-28T04:56:20;15.15;;;9.02;;
21860;SDS011;11095;48.066;8.540;2023-02-28T04:58:46;14.73;;;9.20;;
21860;SDS011;11095;48.066;8.540;2023-02-28T05:01:17;13.80;;;9.25;;
21860;SDS011;11095;48.066;8.540;2023-02-28T05:03:54;13.05;;;8.75;;
21860;SDS011;11095;48.066;8.540;2023-02-28T05:06:21;12.95;;;8.63;;
21860;SDS011;11095;48.066;8.540;2023-02-28T05:08:51;12.20;;;8.27;;
21860;SDS011;11095;48.066;8.540;2023-02-28T05:11:21;14.75;;;8.38;;
21860;SDS011;11095;48.066;8.540;2023-02-28T05:13:47;13.27;;;9.07;;
21860;SDS011;11095;48.066;8.540;2023-02-28T05:16:13;13.35;;;8.35;;
21860;SDS011;11095;48.066;8.540;2023-02-28T05:18:39;12.60;;;8.48;;
21860;SDS011;11095;48.066;8.540;2023-02-28T05:21:05;15.07;;;9.20;;
21860;SDS011;11095;48.066;8.540;2023-02-28T05:23:31;14.18;;;8.77;;
21860;SDS011;11095;48.066;8.540;2023-02-28T05:25:57;14.80;;;8.82;;
21860;SDS011;11095;48.066;8.540;2023-02-28T05:28:23;14.40;;;8.68;;
21860;SDS011;11095;48.066;8.540;2023-02-28T05:30:48;15.43;;;8.18;;
21860;SDS011;11095;48.066;8.540;2023-02-28T05:33:14;12.48;;;8.10;;
21860;SDS011;11095;48.066;8.540;2023-02-28T05:35:40;12.20;;;8.27;;
21860;SDS011;11095;48.066;8.540;2023-02-28T05:38:07;13.45;;;8.40;;
21860;SDS011;11095;48.066;8.540;2023-02-28T05:40:33;14.18;;;8.60;;
21860;SDS011;11095;48.066;8.540;2023-02-28T05:43:00;14.18;;;9.02;;
21860;SDS011;11095;48.066;8.540;2023-02-28T05:45:26;13.43;;;8.82;;
21860;SDS011;11095;48.066;8.540;2023-02-28T05:47:54;14.00;;;8.55;;
21860;SDS011;11095;48.066;8.540;2023-02-28T05:50:20;12.70;;;8.67;;
21860;SDS011;11095;48.066;8.540;2023-02-28T05:52:52;14.73;;;9.10;;
21860;SDS011;11095;48.066;8.540;2023-02-28T05:55:17;14.20;;;8.85;;
21860;SDS011;11095;48.066;8.540;2023-02-28T05:57:43;13.00;;;8.65;;
21860;SDS011;11095;48.066;8.540;2023-02-28T06:00:09;14.95;;;8.38;;
21860;SDS011;11095;48.066;8.540;2023-02-28T06:02:38;16.77;;;9.35;;
21860;SDS011;11095;48.066;8.540;2023-02-28T06:05:04;13.20;;;9.02;;
21860;SDS011;11095;48.066;8.540;2023-02-28T06:07:30;14.45;;;9.27;;
21860;SDS011;11095;48.066;8.540;2023-02-28T06:09:56;17.30;;;9.52;;
21860;SDS011;11095;48.066;8.540;2023-02-28T06:12:21;15.20;;;9.68;;
21860;SDS011;11095;48.066;8.540;2023-02-28T06:14:47;15.77;;;9.52;;
21860;SDS011;11095;48.066;8.540;2023-02-28T06:17:13;16.95;;;9.45;;
21860;SDS011;11095;48.066;8.540;2023-02-28T06:19:38;16.65;;;9.82;;
21860;SDS011;11095;48.066;8.540;2023-02-28T06:22:06;17.08;;;9.80;;
21860;SDS011;11095;48.066;8.540;2023-02-28T06:24:31;15.00;;;9.20;;
21860;SDS011;11095;48.066;8.540;2023-02-28T06:26:57;14.30;;;9.30;;
21860;SDS011;11095;48.066;8.540;2023-02-28T06:29:29;15.98;;;9.52;;
21860;SDS011;11095;48.066;8.540;2023-02-28T06:32:01;17.27;;;9.50;;
21860;SDS011;11095;48.066;8.540;2023-02-28T06:34:27;16.50;;;9.15;;
21860;SDS011;11095;48.066;8.540;2023-02-28T06:36:52;16.25;;;9.77;;
21860;SDS011;11095;48.066;8.540;2023-02-28T06:39:18;15.32;;;9.65;;
21860;SDS011;11095;48.066;8.540;2023-02-28T06:41:44;18.17;;;10.25;;
21860;SDS011;11095;48.066;8.540;2023-02-28T06:44:13;16.58;;;10.52;;
21860;SDS011;11095;48.066;8.540;2023-02-28T06:46:41;21.27;;;10.77;;
21860;SDS011;11095;48.066;8.540;2023-02-28T06:49:08;16.35;;;9.90;;
21860;SDS011;11095;48.066;8.540;2023-02-28T06:51:34;17.17;;;10.52;;
21860;SDS011;11095;48.066;8.540;2023-02-28T06:54:01;15.75;;;9.88;;
21860;SDS011;11095;48.066;8.540;2023-02-28T06:56:27;17.33;;;10.50;;
21860;SDS011;11095;48.066;8.540;2023-02-28T06:58:53;18.75;;;10.93;;
21860;SDS011;11095;48.066;8.540;2023-02-28T07:01:19;17.70;;;11.05;;
21860;SDS011;11095;48.066;8.540;2023-02-28T07:03:45;18.73;;;11.27;;
21860;SDS011;11095;48.066;8.540;2023-02-28T07:06:11;17.05;;;11.23;;
21860;SDS011;11095;48.066;8.540;2023-02-28T07:08:37;17.85;;;11.05;;
21860;SDS011;11095;48.066;8.540;2023-02-28T07:11:05;17.73;;;10.60;;
21860;SDS011;11095;48.066;8.540;2023-02-28T07:13:30;17.58;;;10.60;;
21860;SDS011;11095;48.066;8.540;2023-02-28T07:15:57;16.77;;;10.52;;
21860;SDS011;11095;48.066;8.540;2023-02-28T07:18:24;18.02;;;10.38;;
21860;SDS011;11095;48.066;8.540;2023-02-28T07:20:50;17.35;;;10.45;;
21860;SDS011;11095;48.066;8.540;2023-02-28T07:23:16;17.25;;;10.30;;
21860;SDS011;11095;48.066;8.540;2023-02-28T07:25:42;17.95;;;10.63;;
21860;SDS011;11095;48.066;8.540;2023-02-28T07:28:07;19.00;;;10.93;;
21860;SDS011;11095;48.066;8.540;2023-02-28T07:30:33;15.50;;;10.68;;
21860;SDS011;11095;48.066;8.540;2023-02-28T07:32:59;17.42;;;10.48;;
21860;SDS011;11095;48.066;8.540;2023-02-28T07:35:24;17.33;;;10.57;;
21860;SDS011;11095;48.066;8.540;2023-02-28T07:37:50;18.33;;;11.18;;
21860;SDS011;11095;48.066;8.540;2023-02-28T07:40:16;19.05;;;10.98;;
21860;SDS011;11095;48.066;8.540;2023-02-28T07:42:43;17.92;;;10.68;;
21860;SDS011;11095;48.066;8.540;2023-02-28T07:45:09;24.77;;;14.70;;
21860;SDS011;11095;48.066;8.540;2023-02-28T07:47:37;19.15;;;11.52;;
21860;SDS011;11095;48.066;8.540;2023-02-28T07:50:04;16.67;;;10.65;;
21860;SDS011;11095;48.066;8.540;2023-02-28T07:52:31;18.77;;;11.15;;
21860;SDS011;11095;48.066;8.540;2023-02-28T07:54:57;17.15;;;10.95;;
21860;SDS011;11095;48.066;8.540;2023-02-28T07:57:23;18.15;;;11.43;;
21860;SDS011;11095;48.066;8.540;2023-02-28T07:59:48;17.58;;;10.40;;
21860;SDS011;11095;48.066;8.540;2023-02-28T08:02:14;20.83;;;12.02;;
21860;SDS011;11095;48.066;8.540;2023-02-28T08:04:41;19.48;;;11.60;;
21860;SDS011;11095;48.066;8.540;2023-02-28T08:07:07;19.83;;;11.20;;
21860;SDS011;11095;48.066;8.540;2023-02-28T08:09:33;17.90;;;11.55;;
21860;SDS011;11095;48.066;8.540;2023-02-28T08:11:59;18.70;;;10.88;;
21860;SDS011;11095;48.066;8.540;2023-02-28T08:14:24;18.55;;;10.80;;
21860;SDS011;11095;48.066;8.540;2023-02-28T08:16:51;18.08;;;10.73;;
21860;SDS011;11095;48.066;8.540;2023-02-28T08:19:16;17.70;;;10.73;;
21860;SDS011;11095;48.066;8.540;2023-02-28T08:21:42;17.13;;;10.73;;
21860;SDS011;11095;48.066;8.540;2023-02-28T08:24:08;18.85;;;10.52;;
21860;SDS011;11095;48.066;8.540;2023-02-28T08:26:33;18.35;;;10.38;;
21860;SDS011;11095;48.066;8.540;2023-02-28T08:28:59;17.30;;;10.95;;
21860;SDS011;11095;48.066;8.540;2023-02-28T08:31:25;16.10;;;10.30;;
21860;SDS011;11095;48.066;8.540;2023-02-28T08:33:50;17.88;;;10.98;;
21860;SDS011;11095;48.066;8.540;2023-02-28T08:36:18;17.38;;;10.15;;
21860;SDS011;11095;48.066;8.540;2023-02-28T08:38:44;20.33;;;10.65;;
21860;SDS011;11095;48.066;8.540;2023-02-28T08:41:11;18.45;;;10.55;;
21860;SDS011;11095;48.066;8.540;2023-02-28T08:43:38;17.40;;;10.45;;
21860;SDS011;11095;48.066;8.540;2023-02-28T08:46:05;15.65;;;10.73;;
21860;SDS011;11095;48.066;8.540;2023-02-28T08:48:32;15.43;;;9.82;;
21860;SDS011;11095;48.066;8.540;2023-02-28T08:51:03;18.50;;;10.70;;
21860;SDS011;11095;48.066;8.540;2023-02-28T08:53:34;18.35;;;10.73;;
21860;SDS011;11095;48.066;8.540;2023-02-28T08:56:09;18.85;;;11.00;;
21860;SDS011;11095;48.066;8.540;2023-02-28T08:58:36;22.83;;;12.93;;
21860;SDS011;11095;48.066;8.540;2023-02-28T09:01:12;17.73;;;10.50;;
21860;SDS011;11095;48.066;8.540;2023-02-28T09:03:39;16.77;;;10.55;;
21860;SDS011;11095;48.066;8.540;2023-02-28T09:06:06;16.63;;;10.45;;
21860;SDS011;11095;48.066;8.540;2023-02-28T09:08:33;17.25;;;10.50;;
21860;SDS011;11095;48.066;8.540;2023-02-28T09:10:59;17.88;;;10.63;;
21860;SDS011;11095;48.066;8.540;2023-02-28T09:13:26;16.95;;;10.07;;
21860;SDS011;11095;48.066;8.540;2023-02-28T09:15:53;18.42;;;10.80;;
21860;SDS011;11095;48.066;8.540;2023-02-28T09:18:19;19.52;;;11.30;;
21860;SDS011;11095;48.066;8.540;2023-02-28T09:20:45;18.25;;;11.13;;
21860;SDS011;11095;48.066;8.540;2023-02-28T09:23:11;17.48;;;10.10;;
21860;SDS011;11095;48.066;8.540;2023-02-28T09:25:40;18.13;;;10.85;;
21860;SDS011;11095;48.066;8.540;2023-02-28T09:28:14;16.40;;;10.40;;
21860;SDS011;11095;48.066;8.540;2023-02-28T09:30:41;13.80;;;9.40;;
21860;SDS011;11095;48.066;8.540;2023-02-28T09:33:09;15.30;;;10.18;;
21860;SDS011;11095;48.066;8.540;2023-02-28T09:35:35;17.00;;;10.10;;
21860;SDS011;11095;48.066;8.540;2023-02-28T09:38:02;15.75;;;9.75;;
21860;SDS011;11095;48.066;8.540;2023-02-28T09:40:29;16.98;;;10.20;;
21860;SDS011;11095;48.066;8.540;2023-02-28T09:42:55;16.52;;;10.00;;
21860;SDS011;11095;48.066;8.540;2023-02-28T09:45:26;15.15;;;9.98;;
21860;SDS011;11095;48.066;8.540;2023-02-28T09:48:20;15.55;;;9.00;;
21860;SDS011;11095;48.066;8.540;2023-02-28T09:50:49;15.38;;;9.48;;
21860;SDS011;11095;48.066;8.540;2023-02-28T09:53:30;15.25;;;9.70;;
21860;SDS011;11095;48.066;8.540;2023-02-28T09:55:59;15.43;;;9.20;;
21860;SDS011;11095;48.066;8.540;2023-02-28T09:58:47;15.18;;;9.68;;
21860;SDS011;11095;48.066;8.540;2023-02-28T10:04:05;14.80;;;9.05;;
21860;SDS011;11095;48.066;8.540;2023-02-28T10:06:58;13.40;;;9.40;;
21860;SDS011;11095;48.066;8.540;2023-02-28T10:09:27;13.82;;;8.98;;
21860;SDS011;11095;48.066;8.540;2023-02-28T10:11:57;13.57;;;9.40;;
21860;SDS011;11095;48.066;8.540;2023-02-28T10:14:28;17.40;;;9.75;;
21860;SDS011;11095;48.066;8.540;2023-02-28T10:16:58;14.93;;;9.70;;
21860;SDS011;11095;48.066;8.540;2023-02-28T10:19:56;15.95;;;9.65;;
21860;SDS011;11095;48.066;8.540;2023-02-28T10:22:27;16.10;;;9.80;;
21860;SDS011;11095;48.066;8.540;2023-02-28T10:25:21;16.13;;;9.82;;
21860;SDS011;11095;48.066;8.540;2023-02-28T10:27:49;14.25;;;9.70;;
21860;SDS011;11095;48.066;8.540;2023-02-28T10:30:18;16.15;;;10.02;;
21860;SDS011;11095;48.066;8.540;2023-02-28T10:32:50;16.48;;;10.15;;
21860;SDS011;11095;48.066;8.540;2023-02-28T10:35:22;16.02;;;10.55;;
21860;SDS011;11095;48.066;8.540;2023-02-28T10:37:50;15.50;;;10.38;;
21860;SDS011;11095;48.066;8.540;2023-02-28T10:43:06;15.90;;;9.60;;
21860;SDS011;11095;48.066;8.540;2023-02-28T10:45:38;16.13;;;10.38;;
21860;SDS011;11095;48.066;8.540;2023-02-28T10:53:14;15.90;;;10.00;;
21860;SDS011;11095;48.066;8.540;2023-02-28T10:55:44;15.57;;;10.02;;
21860;SDS011;11095;48.066;8.540;2023-02-28T10:58:22;15.70;;;9.95;;
21860;SDS011;11095;48.066;8.540;2023-02-28T11:00:50;16.35;;;10.35;;
21860;SDS011;11095;48.066;8.540;2023-02-28T11:03:24;15.02;;;9.82;;
21860;SDS011;11095;48.066;8.540;2023-02-28T11:05:54;15.95;;;10.25;;
21860;SDS011;11095;48.066;8.540;2023-02-28T11:08:20;15.80;;;10.77;;
21860;SDS011;11095;48.066;8.540;2023-02-28T11:10:47;13.77;;;9.55;;
21860;SDS011;11095;48.066;8.540;2023-02-28T11:13:21;17.23;;;11.13;;
21860;SDS011;11095;48.066;8.540;2023-02-28T11:15:57;15.63;;;10.07;;
21860;SDS011;11095;48.066;8.540;2023-02-28T11:18:27;16.02;;;10.32;;
21860;SDS011;11095;48.066;8.540;2023-02-28T11:20:59;14.82;;;10.25;;
21860;SDS011;11095;48.066;8.540;2023-02-28T11:23:27;17.45;;;11.38;;
21860;SDS011;11095;48.066;8.540;2023-02-28T11:26:00;15.85;;;10.35;;
21860;SDS011;11095;48.066;8.540;2023-02-28T11:28:29;17.65;;;10.43;;
21860;SDS011;11095;48.066;8.540;2023-02-28T11:31:04;17.95;;;10.88;;
21860;SDS011;11095;48.066;8.540;2023-02-28T11:33:57;15.82;;;10.55;;
21860;SDS011;11095;48.066;8.540;2023-02-28T11:36:24;18.38;;;10.98;;
21860;SDS011;11095;48.066;8.540;2023-02-28T11:38:51;18.52;;;10.68;;
21860;SDS011;11095;48.066;8.540;2023-02-28T11:46:49;16.92;;;11.15;;
21860;SDS011;11095;48.066;8.540;2023-02-28T11:49:32;17.75;;;11.02;;
21860;SDS011;11095;48.066;8.540;2023-02-28T11:52:15;15.90;;;10.57;;
21860;SDS011;11095;48.066;8.540;2023-02-28T12:16:49;18.35;;;11.68;;
21860;SDS011;11095;48.066;8.540;2023-02-28T12:19:20;16.20;;;11.02;;
21860;SDS011;11095;48.066;8.540;2023-02-28T12:21:57;17.70;;;11.52;;
21860;SDS011;11095;48.066;8.540;2023-02-28T12:27:15;17.17;;;11.55;;
21860;SDS011;11095;48.066;8.540;2023-02-28T12:32:13;17.20;;;11.13;;
21860;SDS011;11095;48.066;8.540;2023-02-28T12:34:49;18.50;;;11.93;;
21860;SDS011;11095;48.066;8.540;2023-02-28T12:37:34;17.13;;;11.43;;
21860;SDS011;11095;48.066;8.540;2023-02-28T12:40:23;18.92;;;11.32;;
21860;SDS011;11095;48.066;8.540;2023-02-28T12:42:52;17.15;;;11.20;;
21860;SDS011;11095;48.066;8.540;2023-02-28T12:45:24;16.42;;;11.27;;
21860;SDS011;11095;48.066;8.540;2023-02-28T12:48:02;18.63;;;11.95;;
21860;SDS011;11095;48.066;8.540;2023-02-28T12:50:31;17.85;;;11.18;;
21860;SDS011;11095;48.066;8.540;2023-02-28T12:58:39;14.80;;;10.02;;
21860;SDS011;11095;48.066;8.540;2023-02-28T13:09:52;16.15;;;10.88;;
21860;SDS011;11095;48.066;8.540;2023-02-28T13:12:20;17.23;;;11.07;;
21860;SDS011;11095;48.066;8.540;2023-02-28T13:14:47;18.83;;;11.55;;
21860;SDS011;11095;48.066;8.540;2023-02-28T13:17:21;16.13;;;10.75;;
21860;SDS011;11095;48.066;8.540;2023-02-28T13:24:54;17.50;;;11.00;;
21860;SDS011;11095;48.066;8.540;2023-02-28T13:27:23;18.13;;;10.82;;
21860;SDS011;11095;48.066;8.540;2023-02-28T13:38:53;14.80;;;10.57;;
21860;SDS011;11095;48.066;8.540;2023-02-28T13:44:15;16.98;;;10.75;;
21860;SDS011;11095;48.066;8.540;2023-02-28T13:51:51;18.77;;;12.10;;
21860;SDS011;11095;48.066;8.540;2023-02-28T14:03:13;15.27;;;10.32;;
21860;SDS011;11095;48.066;8.540;2023-02-28T14:08:53;17.40;;;10.63;;
21860;SDS011;11095;48.066;8.540;2023-02-28T14:11:39;14.68;;;10.07;;
21860;SDS011;11095;48.066;8.540;2023-02-28T14:14:07;17.13;;;10.32;;
21860;SDS011;11095;48.066;8.540;2023-02-28T14:16:36;18.10;;;10.38;;
21860;SDS011;11095;48.066;8.540;2023-02-28T14:36:01;14.93;;;10.27;;
21860;SDS011;11095;48.066;8.540;2023-02-28T14:38:54;14.32;;;10.35;;
21860;SDS011;11095;48.066;8.540;2023-02-28T14:41:29;17.38;;;10.85;;
21860;SDS011;11095;48.066;8.540;2023-02-28T14:44:03;16.17;;;10.75;;
21860;SDS011;11095;48.066;8.540;2023-02-28T14:46:41;16.60;;;10.65;;
21860;SDS011;11095;48.066;8.540;2023-02-28T14:52:06;14.32;;;10.10;;
21860;SDS011;11095;48.066;8.540;2023-02-28T14:54:46;15.63;;;9.63;;
21860;SDS011;11095;48.066;8.540;2023-02-28T14:57:22;15.75;;;9.80;;
21860;SDS011;11095;48.066;8.540;2023-02-28T14:59:59;14.85;;;10.20;;
21860;SDS011;11095;48.066;8.540;2023-02-28T15:02:31;14.52;;;9.70;;
21860;SDS011;11095;48.066;8.540;2023-02-28T15:05:01;13.88;;;9.70;;
21860;SDS011;11095;48.066;8.540;2023-02-28T15:07:47;15.60;;;10.32;;
21860;SDS011;11095;48.066;8.540;2023-02-28T15:12:52;15.95;;;10.60;;
21860;SDS011;11095;48.066;8.540;2023-02-28T15:20:50;15.70;;;10.98;;
21860;SDS011;11095;48.066;8.540;2023-02-28T15:23:17;16.83;;;10.88;;
21860;SDS011;11095;48.066;8.540;2023-02-28T15:25:44;14.90;;;9.80;;
21860;SDS011;11095;48.066;8.540;2023-02-28T15:28:14;16.15;;;10.82;;
21860;SDS011;11095;48.066;8.540;2023-02-28T15:30:54;14.40;;;10.40;;
21860;SDS011;11095;48.066;8.540;2023-02-28T15:33:23;14.95;;;9.98;;
21860;SDS011;11095;48.066;8.540;2023-02-28T15:35:51;16.40;;;10.57;;
21860;SDS011;11095;48.066;8.540;2023-02-28T15:38:27;16.70;;;9.82;;
21860;SDS011;11095;48.066;8.540;2023-02-28T15:40:55;17.10;;;11.25;;
21860;SDS011;11095;48.066;8.540;2023-02-28T15:43:28;14.95;;;11.18;;
21860;SDS011;11095;48.066;8.540;2023-02-28T15:45:57;18.33;;;11.10;;
21860;SDS011;11095;48.066;8.540;2023-02-28T15:48:34;15.18;;;10.63;;
21860;SDS011;11095;48.066;8.540;2023-02-28T15:53:34;18.52;;;10.95;;
21860;SDS011;11095;48.066;8.540;2023-02-28T15:56:04;14.93;;;10.55;;
21860;SDS011;11095;48.066;8.540;2023-02-28T15:58:47;17.67;;;11.00;;
21860;SDS011;11095;48.066;8.540;2023-02-28T16:01:19;15.27;;;10.63;;
21860;SDS011;11095;48.066;8.540;2023-02-28T16:03:55;15.57;;;11.13;;
21860;SDS011;11095;48.066;8.540;2023-02-28T16:06:30;16.92;;;10.90;;
21860;SDS011;11095;48.066;8.540;2023-02-28T16:08:59;15.60;;;10.75;;
21860;SDS011;11095;48.066;8.540;2023-02-28T16:11:24;15.25;;;10.95;;
21860;SDS011;11095;48.066;8.540;2023-02-28T16:13:50;16.90;;;11.63;;
21860;SDS011;11095;48.066;8.540;2023-02-28T16:16:22;14.82;;;11.10;;
21860;SDS011;11095;48.066;8.540;2023-02-28T16:18:49;15.88;;;11.52;;
21860;SDS011;11095;48.066;8.540;2023-02-28T16:21:15;15.82;;;10.50;;
21860;SDS011;11095;48.066;8.540;2023-02-28T16:23:41;17.50;;;11.13;;
21860;SDS011;11095;48.066;8.540;2023-02-28T16:26:07;16.33;;;11.23;;
21860;SDS011;11095;48.066;8.540;2023-02-28T16:28:35;15.30;;;11.20;;
21860;SDS011;11095;48.066;8.540;2023-02-28T16:31:04;17.05;;;11.63;;
21860;SDS011;11095;48.066;8.540;2023-02-28T16:33:31;16.45;;;11.30;;
21860;SDS011;11095;48.066;8.540;2023-02-28T16:35:58;16.38;;;11.23;;
21860;SDS011;11095;48.066;8.540;2023-02-28T16:38:24;18.42;;;11.88;;
21860;SDS011;11095;48.066;8.540;2023-02-28T16:40:51;16.58;;;11.35;;
21860;SDS011;11095;48.066;8.540;2023-02-28T16:43:19;17.23;;;11.43;;
21860;SDS011;11095;48.066;8.540;2023-02-28T16:45:48;15.98;;;11.43;;
21860;SDS011;11095;48.066;8.540;2023-02-28T16:48:16;16.23;;;12.23;;
21860;SDS011;11095;48.066;8.540;2023-02-28T16:50:42;17.13;;;12.00;;
21860;SDS011;11095;48.066;8.540;2023-02-28T16:53:09;18.75;;;11.93;;
21860;SDS011;11095;48.066;8.540;2023-02-28T16:55:35;18.02;;;12.23;;
21860;SDS011;11095;48.066;8.540;2023-02-28T16:58:02;18.95;;;11.80;;
21860;SDS011;11095;48.066;8.540;2023-02-28T17:00:28;17.20;;;11.82;;
21860;SDS011;11095;48.066;8.540;2023-02-28T17:02:55;20.00;;;12.60;;
21860;SDS011;11095;48.066;8.540;2023-02-28T17:05:22;20.52;;;12.60;;
21860;SDS011;11095;48.066;8.540;2023-02-28T17:07:48;17.83;;;12.43;;
21860;SDS011;11095;48.066;8.540;2023-02-28T17:10:21;17.33;;;12.80;;
21860;SDS011;11095;48.066;8.540;2023-02-28T17:12:48;20.35;;;13.13;;
21860;SDS011;11095;48.066;8.540;2023-02-28T17:15:15;20.00;;;12.65;;